createdAt,value
2022-10-09T00:03:35.276Z,3.00
2022-10-09T00:06:02.484Z,2.65
2022-10-09T00:10:56.289Z,3.47
2022-10-09T00:15:49.567Z,3.40
2022-10-09T00:18:18.272Z,2.90
2022-10-09T00:20:47.038Z,2.83
2022-10-09T00:23:16.490Z,2.72
2022-10-09T00:25:52.653Z,3.40
2022-10-09T00:28:20.013Z,3.92
2022-10-09T00:30:46.953Z,3.42
2022-10-09T00:33:13.834Z,2.83
2022-10-09T00:35:42.424Z,3.60
2022-10-09T00:38:09.937Z,3.25
2022-10-09T00:40:37.512Z,3.97
2022-10-09T00:43:07.030Z,2.90
2022-10-09T00:45:33.848Z,2.88
2022-10-09T00:48:04.768Z,2.90
2022-10-09T00:50:42.110Z,3.20
2022-10-09T00:53:13.522Z,3.10
2022-10-09T00:55:40.689Z,3.20
2022-10-09T01:00:34.158Z,3.03
2022-10-09T01:03:00.940Z,3.75
2022-10-09T01:05:44.001Z,3.05
2022-10-09T01:08:19.884Z,3.15
2022-10-09T01:10:59.137Z,3.00
2022-10-09T01:13:40.785Z,2.90
2022-10-09T01:16:16.658Z,2.97
2022-10-09T01:19:04.089Z,3.25
2022-10-09T01:21:49.284Z,2.58
2022-10-09T01:24:33.442Z,3.00
2022-10-09T01:27:08.582Z,2.55
2022-10-09T01:29:40.727Z,2.80
2022-10-09T01:32:09.281Z,3.03
2022-10-09T01:34:39.117Z,3.22
2022-10-09T01:37:07.518Z,2.60
2022-10-09T01:39:35.423Z,2.65
2022-10-09T01:42:02.551Z,2.60
2022-10-09T01:44:31.527Z,2.80
2022-10-09T01:46:59.295Z,2.67
2022-10-09T01:49:42.931Z,2.83
2022-10-09T01:52:32.954Z,2.67
2022-10-09T01:55:21.499Z,3.10
2022-10-09T01:58:03.273Z,2.30
2022-10-09T02:00:36.025Z,2.35
2022-10-09T02:03:06.680Z,2.88
2022-10-09T02:05:33.889Z,3.08
2022-10-09T02:08:01.072Z,2.53
2022-10-09T02:12:57.688Z,2.58
2022-10-09T02:15:44.474Z,2.50
2022-10-09T02:18:14.791Z,2.58
2022-10-09T02:20:46.929Z,2.70
2022-10-09T02:23:14.922Z,2.08
2022-10-09T02:25:41.712Z,2.80
2022-10-09T02:28:09.441Z,2.47
2022-10-09T02:30:56.342Z,2.25
2022-10-09T02:33:33.425Z,2.78
2022-10-09T02:36:00.961Z,2.47
2022-10-09T02:38:27.681Z,2.33
2022-10-09T02:40:59.007Z,2.38
2022-10-09T02:43:25.733Z,2.60
2022-10-09T02:45:52.397Z,2.28
2022-10-09T02:48:19.112Z,2.20
2022-10-09T02:50:45.795Z,2.55
2022-10-09T02:53:12.554Z,2.65
2022-10-09T02:55:39.397Z,2.55
2022-10-09T02:58:06.104Z,3.33
2022-10-09T03:00:32.812Z,2.92
2022-10-09T03:02:59.523Z,2.92
2022-10-09T03:05:26.220Z,2.60
2022-10-09T03:07:53.862Z,2.55
2022-10-09T03:10:21.042Z,3.08
2022-10-09T03:12:48.377Z,2.97
2022-10-09T03:15:16.072Z,2.65
2022-10-09T03:17:42.787Z,2.58
2022-10-09T03:20:09.729Z,2.65
2022-10-09T03:22:36.344Z,3.00
2022-10-09T03:25:03.033Z,3.05
2022-10-09T03:27:30.792Z,2.95
2022-10-09T03:29:58.504Z,3.13
2022-10-09T03:32:26.692Z,3.15
2022-10-09T03:34:53.411Z,2.80
2022-10-09T03:37:20.084Z,4.20
2022-10-09T03:39:46.754Z,3.28
2022-10-09T03:42:13.500Z,3.13
2022-10-09T03:44:40.133Z,3.20
2022-10-09T03:47:06.795Z,3.45
2022-10-09T03:49:33.439Z,3.20
2022-10-09T03:52:00.127Z,3.03
2022-10-09T03:54:26.821Z,2.78
2022-10-09T03:56:53.551Z,3.80
2022-10-09T03:59:20.219Z,3.63
2022-10-09T04:01:46.837Z,3.80
2022-10-09T04:04:13.519Z,3.50
2022-10-09T04:06:40.264Z,4.10
2022-10-09T04:09:07.173Z,4.07
2022-10-09T04:11:33.866Z,5.10
2022-10-09T04:14:00.885Z,4.15
2022-10-09T04:16:27.631Z,5.10
2022-10-09T04:18:54.404Z,5.20
2022-10-09T04:21:21.060Z,5.20
2022-10-09T04:23:47.675Z,5.70
2022-10-09T04:26:14.337Z,5.05
2022-10-09T04:28:41.088Z,5.15
2022-10-09T04:31:08.004Z,4.70
2022-10-09T04:33:34.676Z,5.57
2022-10-09T04:36:01.633Z,5.57
2022-10-09T04:38:28.274Z,5.32
2022-10-09T04:41:06.747Z,5.55
2022-10-09T04:43:34.404Z,6.05
2022-10-09T04:46:10.108Z,5.75
2022-10-09T04:48:41.658Z,5.88
2022-10-09T04:51:09.291Z,6.25
2022-10-09T04:53:36.934Z,6.18
2022-10-09T04:56:05.687Z,5.85
2022-10-09T04:58:32.479Z,6.00
2022-10-09T05:00:59.212Z,5.50
2022-10-09T05:03:25.885Z,5.72
2022-10-09T05:05:52.512Z,5.45
2022-10-09T05:08:19.284Z,5.40
2022-10-09T05:10:45.905Z,5.68
2022-10-09T05:13:12.597Z,5.45
2022-10-09T05:15:39.224Z,5.47
2022-10-09T05:18:05.945Z,5.38
2022-10-09T05:20:32.580Z,5.97
2022-10-09T05:22:59.262Z,6.68
2022-10-09T05:25:25.995Z,6.40
2022-10-09T05:27:52.805Z,6.30
2022-10-09T05:30:19.443Z,5.90
2022-10-09T05:32:46.164Z,6.13
2022-10-09T05:35:12.973Z,5.65
2022-10-09T05:37:39.693Z,5.68
2022-10-09T05:40:07.071Z,5.70
2022-10-09T05:42:33.736Z,5.78
2022-10-09T05:45:00.357Z,5.35
2022-10-09T05:47:27.024Z,5.13
2022-10-09T05:49:53.638Z,5.88
2022-10-09T05:52:20.317Z,5.72
2022-10-09T05:54:47.012Z,6.32
2022-10-09T05:57:13.650Z,12.65
2022-10-09T05:59:40.289Z,22.25
2022-10-09T06:02:07.014Z,10.40
2022-10-09T06:04:33.696Z,8.27
2022-10-09T06:07:00.336Z,6.70
2022-10-09T06:09:27.334Z,6.03
2022-10-09T06:11:55.184Z,6.57
2022-10-09T06:14:22.553Z,6.43
2022-10-09T06:16:50.083Z,6.07
2022-10-09T06:19:18.778Z,6.20
2022-10-09T06:21:46.993Z,6.05
2022-10-09T06:24:23.275Z,6.60
2022-10-09T06:26:52.407Z,6.85
2022-10-09T06:29:19.100Z,6.75
2022-10-09T06:31:45.763Z,6.10
2022-10-09T06:34:12.391Z,6.20
2022-10-09T06:36:39.068Z,6.68
2022-10-09T06:39:07.442Z,6.07
2022-10-09T06:41:34.871Z,6.40
2022-10-09T06:44:16.519Z,6.45
2022-10-09T06:46:45.270Z,6.88
2022-10-09T06:49:12.239Z,6.70
2022-10-09T06:51:38.980Z,5.93
2022-10-09T06:54:10.480Z,6.75
2022-10-09T06:56:37.472Z,6.03
2022-10-09T06:59:05.869Z,5.90
2022-10-09T07:01:33.015Z,6.38
2022-10-09T07:06:30.193Z,6.35
2022-10-09T07:09:00.346Z,7.63
2022-10-09T07:11:30.479Z,7.07
2022-10-09T07:13:59.311Z,6.72
2022-10-09T07:16:31.700Z,7.13
2022-10-09T07:19:01.062Z,6.88
2022-10-09T07:21:27.803Z,6.45
2022-10-09T07:23:54.442Z,7.18
2022-10-09T07:26:25.326Z,6.72
2022-10-09T07:28:52.807Z,7.32
2022-10-09T07:31:19.947Z,8.20
2022-10-09T07:33:48.478Z,6.97
2022-10-09T07:36:15.569Z,8.52
2022-10-09T07:41:12.761Z,7.35
2022-10-09T07:43:41.600Z,6.95
2022-10-09T07:46:12.519Z,9.82
2022-10-09T07:48:39.888Z,10.00
2022-10-09T07:51:17.520Z,9.70
2022-10-09T07:53:44.868Z,22.27
2022-10-09T07:56:22.870Z,10.27
2022-10-09T07:58:51.048Z,9.57
2022-10-09T08:01:20.372Z,7.10
2022-10-09T08:03:47.927Z,7.97
2022-10-09T08:06:14.771Z,18.45
2022-10-09T08:08:41.651Z,7.78
2022-10-09T08:11:14.082Z,6.72
2022-10-09T08:13:41.588Z,5.60
2022-10-09T08:16:08.681Z,5.03
2022-10-09T08:18:36.042Z,5.22
2022-10-09T08:21:08.804Z,5.18
2022-10-09T08:23:35.675Z,4.57
2022-10-09T08:26:03.055Z,4.57
2022-10-09T08:28:30.169Z,4.97
2022-10-09T08:33:24.890Z,4.78
2022-10-09T08:35:53.110Z,4.78
2022-10-09T08:38:45.543Z,5.13
2022-10-09T08:41:24.618Z,5.03
2022-10-09T08:44:06.297Z,5.60
2022-10-09T08:47:03.417Z,5.10
2022-10-09T08:49:37.425Z,4.80
2022-10-09T08:52:17.145Z,4.40
2022-10-09T08:54:44.368Z,4.60
2022-10-09T08:57:15.748Z,4.90
2022-10-09T08:59:43.412Z,4.63
2022-10-09T09:02:12.885Z,4.78
2022-10-09T09:05:03.907Z,4.72
2022-10-09T09:07:44.448Z,4.93
2022-10-09T09:10:30.324Z,4.38
2022-10-09T09:13:24.235Z,4.82
2022-10-09T09:16:18.551Z,5.15
2022-10-09T09:18:54.562Z,5.43
2022-10-09T09:21:47.840Z,5.03
2022-10-09T09:24:19.134Z,5.55
2022-10-09T09:26:50.551Z,5.40
2022-10-09T09:29:22.085Z,5.13
2022-10-09T09:31:56.690Z,4.43
2022-10-09T09:34:38.702Z,4.38
2022-10-09T09:37:05.534Z,3.90
2022-10-09T09:40:24.133Z,3.97
2022-10-09T09:42:21.441Z,5.00
2022-10-09T09:44:59.236Z,4.38
2022-10-09T09:47:41.900Z,4.13
2022-10-09T09:50:23.425Z,3.58
2022-10-09T09:52:56.978Z,3.80
2022-10-09T09:55:27.396Z,3.38
2022-10-09T09:58:06.790Z,3.65
2022-10-09T10:00:34.949Z,2.75
2022-10-09T10:03:15.162Z,3.10
2022-10-09T10:05:44.169Z,2.70
2022-10-09T10:08:22.867Z,3.30
2022-10-09T10:10:51.192Z,3.38
2022-10-09T10:13:49.189Z,3.10
2022-10-09T10:16:23.692Z,3.15
2022-10-09T10:18:50.888Z,2.70
2022-10-09T10:21:20.334Z,2.72
2022-10-09T10:23:58.411Z,3.38
2022-10-09T10:26:36.507Z,3.08
2022-10-09T10:29:31.211Z,4.55
2022-10-09T10:32:29.113Z,3.50
2022-10-09T10:35:13.140Z,3.00
2022-10-09T10:38:05.443Z,3.17
2022-10-09T10:40:36.456Z,3.08
2022-10-09T10:43:30.033Z,3.47
2022-10-09T10:46:06.104Z,4.57
2022-10-09T10:48:42.653Z,2.90
2022-10-09T10:51:33.081Z,4.07
2022-10-09T10:54:18.304Z,3.88
2022-10-09T10:57:07.916Z,3.72
2022-10-09T11:00:00.629Z,2.92
2022-10-09T11:02:42.118Z,3.50
2022-10-09T11:05:26.838Z,3.00
2022-10-09T11:08:11.655Z,3.13
2022-10-09T11:10:56.316Z,2.80
2022-10-09T11:13:32.299Z,2.85
2022-10-09T11:16:10.963Z,2.15
2022-10-09T11:18:43.660Z,2.55
2022-10-09T11:21:47.684Z,2.95
2022-10-09T11:24:46.020Z,3.25
2022-10-09T11:27:45.923Z,2.83
2022-10-09T11:30:18.076Z,2.92
2022-10-09T11:32:58.791Z,3.28
2022-10-09T11:35:30.822Z,3.92
2022-10-09T11:38:02.094Z,3.05
2022-10-09T11:40:40.079Z,3.08
2022-10-09T11:43:24.804Z,3.30
2022-10-09T11:46:27.642Z,3.35
2022-10-09T11:49:03.149Z,3.15
2022-10-09T11:51:38.852Z,3.20
2022-10-09T11:54:10.660Z,3.40
2022-10-09T11:56:37.363Z,3.53
2022-10-09T11:59:06.524Z,2.72
2022-10-09T12:01:37.682Z,2.53
2022-10-09T12:04:13.053Z,2.72
2022-10-09T12:06:51.241Z,2.65
2022-10-09T12:09:28.624Z,2.20
2022-10-09T12:12:03.280Z,2.85
2022-10-09T12:14:30.845Z,2.60
2022-10-09T12:16:58.588Z,2.08
2022-10-09T12:19:35.652Z,2.20
2022-10-09T12:22:16.776Z,2.35
2022-10-09T12:24:49.813Z,2.13
2022-10-09T12:27:21.696Z,2.25
2022-10-09T12:29:54.817Z,2.15
2022-10-09T12:34:59.037Z,2.00
2022-10-09T12:37:34.983Z,2.00
2022-10-09T12:40:13.485Z,2.30
2022-10-09T12:42:41.283Z,2.38
2022-10-09T12:45:17.987Z,2.25
2022-10-09T12:47:45.333Z,2.25
2022-10-09T12:50:27.481Z,2.80
2022-10-09T12:52:58.296Z,2.10
2022-10-09T12:55:29.881Z,2.60
2022-10-09T12:58:13.927Z,2.67
2022-10-09T13:00:40.983Z,2.60
2022-10-09T13:03:24.100Z,2.28
2022-10-09T13:05:51.338Z,2.58
2022-10-09T13:08:25.983Z,2.45
2022-10-09T13:10:54.111Z,2.70
2022-10-09T13:13:27.046Z,2.65
2022-10-09T13:16:02.432Z,3.00
2022-10-09T13:18:29.248Z,2.00
2022-10-09T13:21:02.179Z,2.80
2022-10-09T13:23:34.731Z,3.08
2022-10-09T13:26:07.183Z,2.80
2022-10-09T13:28:33.886Z,3.30
2022-10-09T13:31:08.377Z,3.40
2022-10-09T13:33:35.422Z,3.08
2022-10-09T13:36:02.082Z,2.97
2022-10-09T13:38:32.677Z,3.33
2022-10-09T13:41:01.327Z,3.30
2022-10-09T13:43:28.972Z,3.20
2022-10-09T13:45:55.792Z,3.42
2022-10-09T13:48:22.646Z,3.05
2022-10-09T13:50:49.322Z,3.60
2022-10-09T13:53:16.078Z,2.75
2022-10-09T13:55:42.811Z,2.90
2022-10-09T13:58:09.536Z,2.33
2022-10-09T14:00:37.233Z,3.50
2022-10-09T14:03:04.424Z,2.95
2022-10-09T14:05:31.227Z,2.90
2022-10-09T14:07:57.990Z,3.22
2022-10-09T14:10:24.633Z,3.03
2022-10-09T14:12:51.875Z,3.03
2022-10-09T14:15:18.955Z,3.08
2022-10-09T14:17:45.710Z,3.13
2022-10-09T14:20:12.532Z,2.80
2022-10-09T14:22:39.189Z,2.88
2022-10-09T14:25:06.697Z,3.03
2022-10-09T14:30:05.479Z,2.80
2022-10-09T14:32:32.795Z,2.85
2022-10-09T14:34:59.775Z,3.00
2022-10-09T14:37:41.239Z,3.03
2022-10-09T14:40:10.298Z,2.58
2022-10-09T14:42:38.421Z,2.47
2022-10-09T14:45:06.081Z,2.33
2022-10-09T14:47:32.739Z,2.58
2022-10-09T14:49:59.404Z,2.70
2022-10-09T14:52:26.030Z,2.30
2022-10-09T14:54:52.682Z,2.25
2022-10-09T14:57:19.312Z,2.58
2022-10-09T14:59:46.085Z,3.10
2022-10-09T15:02:15.081Z,2.33
2022-10-09T15:04:41.772Z,2.65
2022-10-09T15:07:08.426Z,2.53
2022-10-09T15:09:35.115Z,2.00
2022-10-09T15:12:01.797Z,2.55
2022-10-09T15:14:28.428Z,2.45
2022-10-09T15:16:55.090Z,2.80
2022-10-09T15:19:21.806Z,2.67
2022-10-09T15:21:48.472Z,2.45
2022-10-09T15:24:15.134Z,2.90
2022-10-09T15:26:41.999Z,2.42
2022-10-09T15:29:09.116Z,2.17
2022-10-09T15:31:40.400Z,2.10
2022-10-09T15:34:08.386Z,2.40
2022-10-09T15:36:39.746Z,2.10
2022-10-09T15:39:08.693Z,4.05
2022-10-09T15:41:38.114Z,2.75
2022-10-09T15:44:18.313Z,2.78
2022-10-09T15:46:47.373Z,2.70
2022-10-09T15:49:14.299Z,2.13
2022-10-09T15:51:41.055Z,2.30
2022-10-09T15:54:08.106Z,2.13
2022-10-09T15:56:38.899Z,2.20
2022-10-09T15:59:10.809Z,1.92
2022-10-09T16:01:37.484Z,2.08
2022-10-09T16:04:04.376Z,2.08
2022-10-09T16:06:31.064Z,1.92
2022-10-09T16:08:59.004Z,1.95
2022-10-09T16:11:26.637Z,1.70
2022-10-09T16:13:55.651Z,1.88
2022-10-09T16:16:24.524Z,2.08
2022-10-09T16:18:52.144Z,1.75
2022-10-09T16:21:24.481Z,2.33
2022-10-09T16:23:55.766Z,2.40
2022-10-09T16:26:25.153Z,2.22
2022-10-09T16:28:52.338Z,1.90
2022-10-09T16:31:28.322Z,2.25
2022-10-09T16:33:55.340Z,2.10
2022-10-09T16:36:22.295Z,2.20
2022-10-09T16:38:49.157Z,4.90
2022-10-09T16:41:18.550Z,3.80
2022-10-09T16:43:46.937Z,4.25
2022-10-09T16:46:29.250Z,4.80
2022-10-09T16:48:57.222Z,3.97
2022-10-09T16:51:28.223Z,4.22
2022-10-09T16:53:57.104Z,4.50
2022-10-09T16:56:26.945Z,5.57
2022-10-09T16:58:58.395Z,15.77
2022-10-09T17:01:27.044Z,51.38
2022-10-09T17:03:56.712Z,114.07
2022-10-09T17:06:24.130Z,112.55
2022-10-09T17:08:52.810Z,40.45
2022-10-09T17:11:20.389Z,15.50
2022-10-09T17:13:47.494Z,10.90
2022-10-09T17:16:18.604Z,6.97
2022-10-09T17:18:46.290Z,5.57
2022-10-09T17:21:14.317Z,4.97
2022-10-09T17:23:41.041Z,4.82
2022-10-09T17:26:09.787Z,5.82
2022-10-09T17:28:36.564Z,4.60
2022-10-09T17:33:34.498Z,3.97
2022-10-09T17:36:02.368Z,4.78
2022-10-09T17:38:29.037Z,4.50
2022-10-09T17:40:55.785Z,5.32
2022-10-09T17:43:22.601Z,4.72
2022-10-09T17:48:16.119Z,4.57
2022-10-09T17:50:51.316Z,4.90
2022-10-09T17:53:18.199Z,4.97
2022-10-09T17:55:44.984Z,4.85
2022-10-09T18:00:39.014Z,4.25
2022-10-09T18:03:05.804Z,4.80
2022-10-09T18:05:32.447Z,4.00
2022-10-09T18:07:59.163Z,4.68
2022-10-09T18:10:25.830Z,4.57
2022-10-09T18:12:52.537Z,4.82
2022-10-09T18:15:19.182Z,6.18
2022-10-09T18:17:45.848Z,5.32
2022-10-09T18:20:12.469Z,6.00
2022-10-09T18:22:39.127Z,7.45
2022-10-09T18:25:06.126Z,7.05
2022-10-09T18:27:32.807Z,7.53
2022-10-09T18:29:59.552Z,6.80
2022-10-09T18:32:26.311Z,6.90
2022-10-09T18:34:52.968Z,6.40
2022-10-09T18:37:20.034Z,7.22
2022-10-09T18:39:46.771Z,6.82
2022-10-09T18:42:13.416Z,7.25
2022-10-09T18:44:41.553Z,6.80
2022-10-09T18:47:11.908Z,6.97
2022-10-09T18:49:42.991Z,6.85
2022-10-09T18:52:10.507Z,7.20
2022-10-09T18:54:39.050Z,6.80
2022-10-09T18:57:06.147Z,7.57
2022-10-09T18:59:35.667Z,7.45
2022-10-09T19:02:02.821Z,8.00
2022-10-09T19:04:29.682Z,8.15
2022-10-09T19:09:23.788Z,7.80
2022-10-09T19:11:52.445Z,7.70
2022-10-09T19:14:19.289Z,7.53
2022-10-09T19:19:12.785Z,8.00
2022-10-09T19:24:12.021Z,8.05
2022-10-09T19:26:39.017Z,9.20
2022-10-09T19:29:07.068Z,8.73
2022-10-09T19:31:35.464Z,9.05
2022-10-09T19:34:04.251Z,8.52
2022-10-09T19:36:36.470Z,8.50
2022-10-09T19:39:08.018Z,9.50
2022-10-09T19:41:35.095Z,9.00
2022-10-09T19:44:01.793Z,8.85
2022-10-09T19:46:29.540Z,9.05
2022-10-09T19:48:56.287Z,8.35
2022-10-09T19:51:25.682Z,8.05
2022-10-09T19:53:53.455Z,8.60
2022-10-09T19:56:22.858Z,8.68
2022-10-09T19:58:49.879Z,7.72
2022-10-09T20:01:19.215Z,8.90
2022-10-09T20:03:46.967Z,8.65
2022-10-09T20:06:14.176Z,8.23
2022-10-09T20:08:42.337Z,8.32
2022-10-09T20:11:11.380Z,8.38
2022-10-09T20:13:39.125Z,8.23
2022-10-09T20:16:08.451Z,8.15
2022-10-09T20:18:35.327Z,8.50
2022-10-09T20:21:02.017Z,8.80
2022-10-09T20:23:28.668Z,7.90
2022-10-09T20:26:07.676Z,7.75
2022-10-09T20:28:36.446Z,7.57
2022-10-09T20:31:07.933Z,7.78
2022-10-09T20:33:35.808Z,7.80
2022-10-09T20:36:03.809Z,6.80
2022-10-09T20:38:30.860Z,7.47
2022-10-09T20:41:06.611Z,7.13
2022-10-09T20:43:37.001Z,7.05
2022-10-09T20:46:23.584Z,6.88
2022-10-09T20:48:51.455Z,7.85
2022-10-09T20:51:19.249Z,7.75
2022-10-09T20:53:46.832Z,8.60
2022-10-09T20:56:14.562Z,9.18
2022-10-09T20:58:41.444Z,8.93
2022-10-09T21:01:09.769Z,8.55
2022-10-09T21:03:38.039Z,8.50
2022-10-09T21:06:06.539Z,8.20
2022-10-09T21:08:33.767Z,8.02
2022-10-09T21:11:00.704Z,7.97
2022-10-09T21:13:27.320Z,7.38
2022-10-09T21:15:54.072Z,7.40
2022-10-09T21:18:21.419Z,7.07
2022-10-09T21:20:49.382Z,7.35
2022-10-09T21:23:18.777Z,7.28
2022-10-09T21:25:53.294Z,6.80
2022-10-09T21:28:21.553Z,6.53
2022-10-09T21:30:48.845Z,6.30
2022-10-09T21:33:16.724Z,6.70
2022-10-09T21:35:46.020Z,6.40
2022-10-09T21:38:17.897Z,5.90
2022-10-09T21:40:45.836Z,6.18
2022-10-09T21:43:13.191Z,5.60
2022-10-09T21:45:40.415Z,5.65
2022-10-09T21:48:07.723Z,6.75
2022-10-09T21:50:36.314Z,5.50
2022-10-09T21:53:04.085Z,6.30
2022-10-09T21:55:30.836Z,5.43
2022-10-09T21:57:57.494Z,5.32
2022-10-09T22:00:24.249Z,5.85
2022-10-09T22:02:51.180Z,5.63
2022-10-09T22:05:18.273Z,5.40
2022-10-09T22:07:44.902Z,5.55
2022-10-09T22:10:11.900Z,5.50
2022-10-09T22:15:06.021Z,5.45
2022-10-09T22:17:32.626Z,5.10
2022-10-09T22:19:59.304Z,5.47
2022-10-09T22:22:26.086Z,4.95
2022-10-09T22:24:53.260Z,5.75
2022-10-09T22:27:20.366Z,5.05
2022-10-09T22:29:47.064Z,4.95
2022-10-09T22:32:13.686Z,4.28
2022-10-09T22:34:40.367Z,5.03
2022-10-09T22:37:07.055Z,4.30
2022-10-09T22:39:33.846Z,4.30
2022-10-09T22:42:00.596Z,4.35
2022-10-09T22:44:27.354Z,3.97
2022-10-09T22:46:53.996Z,4.10
2022-10-09T22:49:20.689Z,4.30
2022-10-09T22:51:47.323Z,4.22
2022-10-09T22:54:14.136Z,3.88
2022-10-09T22:56:43.549Z,3.67
2022-10-09T22:59:12.920Z,4.00
2022-10-09T23:01:45.571Z,4.22
2022-10-09T23:04:14.205Z,4.15
2022-10-09T23:06:42.020Z,4.20
2022-10-09T23:09:10.657Z,4.07
2022-10-09T23:11:37.338Z,3.83
2022-10-09T23:14:04.437Z,4.13
2022-10-09T23:19:04.162Z,3.70
2022-10-09T23:21:33.001Z,4.35
2022-10-09T23:23:59.820Z,4.03
2022-10-09T23:26:29.611Z,4.50
2022-10-09T23:29:01.887Z,4.00
2022-10-09T23:31:29.396Z,4.88
2022-10-09T23:33:57.215Z,4.30
2022-10-09T23:36:25.839Z,4.20
2022-10-09T23:38:52.588Z,4.00
2022-10-09T23:41:22.287Z,4.53
2022-10-09T23:43:50.001Z,4.30
2022-10-09T23:46:19.550Z,4.93
2022-10-09T23:48:47.140Z,4.15
2022-10-09T23:51:14.463Z,4.88
2022-10-09T23:53:42.372Z,4.53
2022-10-09T23:56:19.490Z,4.65
2022-10-09T23:58:46.517Z,4.47
